createdAt,value
2023-01-04T00:01:22.180Z,1.27
2023-01-04T00:03:49.079Z,1.13
2023-01-04T00:06:17.282Z,1.30
2023-01-04T00:08:44.006Z,1.13
2023-01-04T00:11:20.951Z,1.00
2023-01-04T00:13:50.004Z,1.23
2023-01-04T00:16:21.012Z,1.17
2023-01-04T00:18:48.795Z,1.07
2023-01-04T00:21:20.038Z,1.25
2023-01-04T00:23:49.301Z,1.87
2023-01-04T00:26:20.335Z,0.93
2023-01-04T00:28:53.889Z,1.20
2023-01-04T00:31:22.856Z,1.10
2023-01-04T00:33:51.268Z,1.00
2023-01-04T00:36:17.968Z,1.40
2023-01-04T00:38:44.739Z,1.00
2023-01-04T00:41:34.456Z,1.10
2023-01-04T00:44:03.045Z,1.20
2023-01-04T00:46:30.748Z,1.33
2023-01-04T00:49:00.467Z,1.30
2023-01-04T00:51:29.265Z,1.27
2023-01-04T00:53:57.633Z,1.17
2023-01-04T00:56:24.367Z,1.55
2023-01-04T00:58:55.950Z,1.27
2023-01-04T01:01:23.649Z,1.13
2023-01-04T01:03:55.921Z,1.40
2023-01-04T01:06:24.802Z,1.20
2023-01-04T01:08:54.742Z,1.05
2023-01-04T01:11:21.772Z,1.35
2023-01-04T01:13:50.660Z,1.33
2023-01-04T01:16:44.298Z,1.30
2023-01-04T01:19:08.809Z,1.30
2023-01-04T01:21:35.652Z,1.50
2023-01-04T01:24:02.362Z,1.40
2023-01-04T01:26:29.104Z,1.20
2023-01-04T01:28:55.862Z,1.40
2023-01-04T01:31:26.141Z,1.13
2023-01-04T01:33:54.873Z,1.10
2023-01-04T01:36:24.718Z,0.90
2023-01-04T01:38:51.765Z,0.95
2023-01-04T01:41:31.531Z,1.35
2023-01-04T01:44:01.257Z,1.10
2023-01-04T01:46:55.555Z,0.90
2023-01-04T01:49:30.566Z,1.00
2023-01-04T01:52:02.613Z,0.70
2023-01-04T01:57:03.718Z,1.10
2023-01-04T01:59:32.835Z,0.82
2023-01-04T02:01:59.784Z,0.75
2023-01-04T02:04:26.911Z,0.80
2023-01-04T02:06:56.845Z,1.00
2023-01-04T02:09:24.044Z,1.10
2023-01-04T02:11:50.733Z,0.93
2023-01-04T02:14:29.197Z,1.25
2023-01-04T02:17:49.105Z,1.10
2023-01-04T02:20:38.725Z,0.93
2023-01-04T02:23:44.007Z,0.93
2023-01-04T02:26:59.172Z,0.95
2023-01-04T02:29:37.783Z,0.60
2023-01-04T02:32:40.810Z,0.65
2023-01-04T02:35:48.711Z,0.85
2023-01-04T02:38:52.458Z,0.80
2023-01-04T02:41:47.970Z,0.90
2023-01-04T02:44:51.072Z,0.75
2023-01-04T02:47:59.037Z,0.60
2023-01-04T02:50:58.763Z,0.80
2023-01-04T02:53:42.058Z,0.60
2023-01-04T02:56:16.516Z,0.63
2023-01-04T02:59:33.955Z,0.50
2023-01-04T03:02:34.817Z,0.60
2023-01-04T03:06:09.380Z,0.52
2023-01-04T03:08:54.673Z,0.50
2023-01-04T03:11:40.455Z,0.40
2023-01-04T03:14:31.582Z,0.57
2023-01-04T03:17:01.517Z,0.52
2023-01-04T03:19:47.242Z,0.55
2023-01-04T03:22:38.014Z,0.68
2023-01-04T03:25:26.132Z,0.60
2023-01-04T03:28:14.125Z,0.40
2023-01-04T03:31:18.039Z,0.50
2023-01-04T03:34:03.926Z,0.77
2023-01-04T03:36:52.511Z,0.57
2023-01-04T03:40:06.599Z,0.40
2023-01-04T03:43:07.536Z,0.40
2023-01-04T03:46:04.288Z,0.70
2023-01-04T03:48:58.633Z,0.50
2023-01-04T03:51:37.046Z,0.40
2023-01-04T03:54:22.024Z,0.60
2023-01-04T03:56:50.085Z,0.50
2023-01-04T03:59:17.370Z,0.50
2023-01-04T04:01:45.136Z,0.50
2023-01-04T04:04:31.003Z,0.50
2023-01-04T04:07:16.234Z,0.40
2023-01-04T04:09:43.145Z,0.40
2023-01-04T04:12:09.998Z,0.50
2023-01-04T04:14:36.718Z,0.30
2023-01-04T04:17:03.712Z,0.50
2023-01-04T04:19:30.518Z,0.60
2023-01-04T04:21:57.314Z,0.28
2023-01-04T04:24:26.548Z,0.50
2023-01-04T04:26:55.653Z,0.50
2023-01-04T04:29:24.204Z,0.52
2023-01-04T04:31:51.230Z,0.35
2023-01-04T04:34:18.130Z,0.50
2023-01-04T04:36:44.936Z,0.30
2023-01-04T04:39:12.156Z,0.50
2023-01-04T04:41:41.235Z,0.40
2023-01-04T04:44:12.441Z,0.47
2023-01-04T04:46:39.460Z,0.40
2023-01-04T04:49:07.938Z,0.30
2023-01-04T04:51:34.645Z,0.40
2023-01-04T04:54:02.066Z,0.50
2023-01-04T04:56:29.026Z,0.40
2023-01-04T04:58:55.980Z,0.30
2023-01-04T05:01:22.952Z,0.40
2023-01-04T05:03:50.249Z,0.30
2023-01-04T05:06:16.990Z,0.35
2023-01-04T05:08:43.710Z,0.40
2023-01-04T05:11:13.070Z,0.35
2023-01-04T05:13:40.152Z,0.32
2023-01-04T05:16:08.891Z,0.45
2023-01-04T05:18:36.295Z,0.25
2023-01-04T05:21:03.220Z,0.50
2023-01-04T05:23:29.933Z,0.40
2023-01-04T05:26:00.252Z,0.45
2023-01-04T05:28:27.736Z,0.30
2023-01-04T05:30:55.483Z,0.40
2023-01-04T05:33:29.076Z,0.47
2023-01-04T05:35:59.017Z,0.43
2023-01-04T05:38:26.410Z,0.40
2023-01-04T06:02:42.141Z,0.38
2023-01-04T06:05:10.462Z,0.50
2023-01-04T06:07:39.115Z,0.45
2023-01-04T06:10:12.348Z,0.40
2023-01-04T06:12:40.003Z,0.50
2023-01-04T06:15:08.627Z,0.80
2023-01-04T06:17:36.315Z,0.40
2023-01-04T06:20:04.562Z,0.50
2023-01-04T06:22:32.702Z,0.40
2023-01-04T06:24:59.811Z,0.40
2023-01-04T06:27:26.656Z,0.38
2023-01-04T06:29:53.561Z,0.40
2023-01-04T06:32:20.389Z,0.45
2023-01-04T06:34:47.132Z,0.50
2023-01-04T06:37:13.911Z,0.40
2023-01-04T06:39:40.645Z,0.40
2023-01-04T06:42:27.333Z,0.40
2023-01-04T06:44:54.105Z,0.73
2023-01-04T06:47:21.300Z,0.40
2023-01-04T06:49:48.092Z,0.68
2023-01-04T06:52:14.869Z,0.40
2023-01-04T06:54:41.577Z,0.43
2023-01-04T06:57:08.392Z,0.60
2023-01-04T06:59:35.224Z,0.43
2023-01-04T07:02:02.071Z,0.35
2023-01-04T07:04:28.876Z,0.50
2023-01-04T07:06:55.801Z,0.55
2023-01-04T07:09:22.512Z,0.50
2023-01-04T07:11:49.248Z,0.60
2023-01-04T07:14:16.017Z,0.32
2023-01-04T07:16:42.767Z,0.50
2023-01-04T07:19:09.662Z,0.50
2023-01-04T07:21:36.363Z,0.40
2023-01-04T07:24:03.074Z,0.40
2023-01-04T07:26:29.799Z,0.40
2023-01-04T07:29:14.551Z,0.50
2023-01-04T07:31:42.522Z,0.60
2023-01-04T07:34:09.455Z,0.60
2023-01-04T07:36:36.199Z,0.50
2023-01-04T07:39:03.101Z,0.43
2023-01-04T07:41:29.826Z,0.60
2023-01-04T07:43:56.541Z,0.60
2023-01-04T07:46:23.367Z,0.60
2023-01-04T07:48:50.176Z,0.57
2023-01-04T07:51:16.871Z,0.55
2023-01-04T07:53:43.587Z,0.70
2023-01-04T07:56:15.166Z,0.73
2023-01-04T07:58:45.293Z,0.50
2023-01-04T08:01:15.762Z,0.80
2023-01-04T08:03:44.730Z,0.80
2023-01-04T08:06:14.024Z,0.50
2023-01-04T08:08:40.779Z,0.80
2023-01-04T08:11:12.164Z,0.60
2023-01-04T08:13:38.973Z,0.50
2023-01-04T08:16:06.332Z,0.60
2023-01-04T08:18:34.616Z,0.70
2023-01-04T08:21:09.381Z,0.60
2023-01-04T08:23:37.372Z,0.80
2023-01-04T08:26:13.119Z,0.82
2023-01-04T08:28:40.689Z,0.90
2023-01-04T08:31:13.059Z,1.10
2023-01-04T08:33:41.208Z,0.80
2023-01-04T08:36:22.604Z,0.80
2023-01-04T08:39:01.311Z,1.10
2023-01-04T08:41:56.664Z,1.05
2023-01-04T08:44:22.365Z,1.00
2023-01-04T08:46:50.818Z,1.00
2023-01-04T08:49:18.124Z,0.82
2023-01-04T08:51:45.810Z,0.70
2023-01-04T08:54:13.122Z,0.93
2023-01-04T08:56:40.251Z,0.80
2023-01-04T08:59:08.099Z,0.50
2023-01-04T09:01:35.590Z,0.73
2023-01-04T09:04:02.811Z,1.02
2023-01-04T09:06:29.724Z,0.68
2023-01-04T09:08:57.833Z,1.10
2023-01-04T09:11:26.070Z,0.80
2023-01-04T09:14:06.858Z,0.47
2023-01-04T09:16:37.042Z,0.75
2023-01-04T09:19:05.186Z,0.52
2023-01-04T09:21:32.222Z,0.50
2023-01-04T09:23:59.182Z,0.40
2023-01-04T09:26:26.278Z,0.60
2023-01-04T09:28:55.351Z,0.60
2023-01-04T09:31:25.901Z,0.50
2023-01-04T09:36:40.150Z,0.60
2023-01-04T09:39:07.165Z,0.68
2023-01-04T09:41:44.534Z,0.60
2023-01-04T09:44:18.161Z,0.65
2023-01-04T09:47:10.109Z,0.60
2023-01-04T09:49:52.656Z,0.60
2023-01-04T09:52:56.907Z,0.80
2023-01-04T09:55:37.316Z,0.98
2023-01-04T09:58:22.085Z,0.60
2023-01-04T10:01:17.845Z,0.77
2023-01-04T10:04:35.510Z,0.60
2023-01-04T10:07:05.244Z,0.70
2023-01-04T10:09:32.474Z,0.70
2023-01-04T10:12:11.127Z,0.77
2023-01-04T10:15:06.992Z,1.88
2023-01-04T10:18:51.973Z,1.20
2023-01-04T10:21:31.568Z,2.50
2023-01-04T10:24:37.211Z,2.00
2023-01-04T10:27:20.776Z,1.70
2023-01-04T10:29:57.255Z,1.40
2023-01-04T10:32:42.825Z,1.00
2023-01-04T10:35:21.594Z,1.00
2023-01-04T10:38:23.016Z,1.00
2023-01-04T10:40:50.329Z,1.00
2023-01-04T10:44:11.177Z,0.80
2023-01-04T10:46:40.900Z,0.95
2023-01-04T10:49:18.211Z,0.90
2023-01-04T10:52:01.648Z,1.20
2023-01-04T10:54:47.819Z,0.90
2023-01-04T10:57:25.410Z,0.90
2023-01-04T11:00:04.696Z,0.90
2023-01-04T11:03:10.344Z,1.65
2023-01-04T11:06:00.538Z,1.10
2023-01-04T11:08:35.805Z,1.50
2023-01-04T11:11:16.447Z,1.17
2023-01-04T11:13:43.193Z,1.40
2023-01-04T11:16:10.952Z,1.30
2023-01-04T11:18:39.523Z,1.10
2023-01-04T11:21:13.145Z,1.55
2023-01-04T11:23:40.102Z,1.23
2023-01-04T11:26:15.776Z,1.17
2023-01-04T11:28:54.006Z,1.10
2023-01-04T11:31:53.893Z,1.30
2023-01-04T11:34:43.714Z,1.00
2023-01-04T11:37:34.075Z,1.30
2023-01-04T11:40:23.437Z,1.38
2023-01-04T11:43:18.532Z,1.10
2023-01-04T11:46:05.967Z,0.90
2023-01-04T11:48:44.843Z,0.90
2023-01-04T11:51:26.821Z,1.00
2023-01-04T11:54:19.642Z,1.10
2023-01-04T11:57:19.795Z,1.02
2023-01-04T12:00:14.600Z,1.20
2023-01-04T12:05:30.692Z,0.90
2023-01-04T12:07:58.798Z,0.90
2023-01-04T12:10:28.630Z,1.00
2023-01-04T12:13:00.712Z,0.80
2023-01-04T12:15:51.759Z,0.60
2023-01-04T12:18:30.003Z,0.88
2023-01-04T12:20:57.690Z,1.00
2023-01-04T12:23:24.851Z,0.70
2023-01-04T12:25:53.171Z,0.77
2023-01-04T12:28:42.894Z,0.63
2023-01-04T12:31:22.435Z,0.60
2023-01-04T12:33:58.370Z,0.70
2023-01-04T12:36:37.280Z,0.60
2023-01-04T12:39:28.936Z,0.70
2023-01-04T12:42:01.435Z,0.77
2023-01-04T12:44:40.076Z,0.88
2023-01-04T12:47:37.384Z,0.70
2023-01-04T12:50:27.621Z,2.72
2023-01-04T12:55:45.541Z,1.23
2023-01-04T12:58:42.309Z,0.60
2023-01-04T13:01:28.572Z,0.70
2023-01-04T13:04:05.098Z,0.70
2023-01-04T13:06:42.905Z,0.70
2023-01-04T13:09:24.803Z,0.55
2023-01-04T13:12:04.756Z,0.60
2023-01-04T13:14:44.123Z,0.75
2023-01-04T13:17:13.578Z,2.47
2023-01-04T13:19:41.851Z,1.70
2023-01-04T13:22:29.566Z,1.30
2023-01-04T13:24:59.112Z,1.00
2023-01-04T13:27:26.975Z,1.10
2023-01-04T13:29:54.198Z,0.88
2023-01-04T13:32:26.164Z,0.70
2023-01-04T13:37:47.462Z,0.80
2023-01-04T13:40:37.376Z,0.60
2023-01-04T13:43:16.174Z,1.27
2023-01-04T13:46:11.147Z,1.10
2023-01-04T13:48:41.724Z,0.90
2023-01-04T13:51:36.225Z,0.82
2023-01-04T13:54:17.568Z,0.80
2023-01-04T13:56:48.244Z,1.20
2023-01-04T13:59:20.324Z,0.70
2023-01-04T14:01:51.583Z,0.70
2023-01-04T14:04:27.250Z,0.70
2023-01-04T14:06:57.884Z,0.60
2023-01-04T14:09:29.129Z,0.70
2023-01-04T14:12:08.321Z,0.60
2023-01-04T14:14:59.404Z,0.60
2023-01-04T14:17:41.676Z,0.60
2023-01-04T14:20:11.165Z,0.50
2023-01-04T14:22:52.872Z,0.77
2023-01-04T14:25:35.676Z,0.63
2023-01-04T14:28:29.590Z,0.50
2023-01-04T14:30:59.353Z,0.50
2023-01-04T14:33:42.265Z,0.55
2023-01-04T14:36:09.296Z,0.50
2023-01-04T14:39:19.541Z,0.85
2023-01-04T14:41:49.191Z,0.68
2023-01-04T14:44:21.520Z,0.50
2023-01-04T14:46:52.910Z,0.52
2023-01-04T14:49:22.023Z,0.40
2023-01-04T14:51:53.181Z,0.80
2023-01-04T14:54:25.106Z,0.50
2023-01-04T14:56:55.001Z,0.50
2023-01-04T14:59:25.604Z,0.60
2023-01-04T15:01:53.777Z,0.55
2023-01-04T15:04:21.208Z,0.60
2023-01-04T15:06:58.328Z,0.70
2023-01-04T15:09:25.279Z,0.70
2023-01-04T15:11:52.260Z,0.60
2023-01-04T15:14:19.555Z,0.60
2023-01-04T15:16:46.663Z,0.57
2023-01-04T15:19:14.001Z,0.70
2023-01-04T15:21:41.729Z,1.10
2023-01-04T15:24:10.074Z,0.70
2023-01-04T15:26:38.315Z,0.73
2023-01-04T15:29:06.569Z,0.60
2023-01-04T15:31:38.970Z,0.77
2023-01-04T15:34:06.339Z,0.77
2023-01-04T15:36:33.161Z,0.93
2023-01-04T15:38:59.875Z,0.90
2023-01-04T15:41:44.961Z,0.93
2023-01-04T15:44:11.847Z,0.70
2023-01-04T15:46:38.953Z,0.75
2023-01-04T15:49:08.288Z,0.60
2023-01-04T15:51:37.423Z,0.80
2023-01-04T15:54:04.331Z,0.80
2023-01-04T15:56:31.035Z,0.70
2023-01-04T15:58:57.796Z,0.70
2023-01-04T16:01:24.670Z,0.60
2023-01-04T16:03:54.160Z,0.88
2023-01-04T16:06:22.205Z,0.82
2023-01-04T16:08:51.765Z,0.80
2023-01-04T16:11:23.667Z,1.10
2023-01-04T16:16:22.351Z,0.80
2023-01-04T16:18:52.259Z,0.88
2023-01-04T16:21:26.733Z,1.10
2023-01-04T16:24:06.968Z,0.90
2023-01-04T16:26:37.043Z,0.70
2023-01-04T16:29:04.186Z,0.93
2023-01-04T16:31:36.339Z,0.82
2023-01-04T16:34:04.583Z,0.60
2023-01-04T16:36:31.705Z,0.90
2023-01-04T16:38:58.435Z,0.90
2023-01-04T16:41:25.245Z,0.68
2023-01-04T16:43:55.253Z,1.00
2023-01-04T16:46:30.973Z,1.13
2023-01-04T16:49:11.336Z,0.63
2023-01-04T16:51:40.860Z,0.95
2023-01-04T16:54:11.794Z,0.68
2023-01-04T16:56:40.355Z,0.90
2023-01-04T16:59:08.618Z,1.05
2023-01-04T17:01:39.449Z,1.00
2023-01-04T17:04:13.604Z,1.27
2023-01-04T17:06:43.787Z,1.10
2023-01-04T17:09:14.494Z,1.10
2023-01-04T17:14:30.550Z,1.58
2023-01-04T17:16:58.089Z,1.50
2023-01-04T17:19:25.259Z,1.40
2023-01-04T17:21:52.540Z,2.05
2023-01-04T17:24:19.899Z,1.60
2023-01-04T17:26:46.895Z,1.83
2023-01-04T17:29:14.786Z,2.17
2023-01-04T17:31:44.232Z,2.20
2023-01-04T17:34:22.545Z,1.83
2023-01-04T17:36:49.854Z,1.75
2023-01-04T17:39:16.601Z,2.70
2023-01-04T17:41:43.596Z,2.40
2023-01-04T17:44:10.877Z,2.38
2023-01-04T17:46:38.066Z,2.13
2023-01-04T17:49:22.115Z,2.50
2023-01-04T17:51:50.967Z,3.03
2023-01-04T17:54:17.792Z,3.13
2023-01-04T17:56:44.671Z,2.97
2023-01-04T17:59:12.387Z,3.42
2023-01-04T18:01:39.145Z,2.90
2023-01-04T18:04:05.932Z,3.05
2023-01-04T18:06:37.168Z,3.95
2023-01-04T18:09:06.620Z,3.08
2023-01-04T18:11:34.728Z,2.83
2023-01-04T18:14:04.370Z,3.00
2023-01-04T18:16:54.827Z,3.70
2023-01-04T18:19:23.508Z,3.15
2023-01-04T18:21:50.258Z,3.10
2023-01-04T18:24:35.578Z,2.97
2023-01-04T18:29:50.780Z,3.40
2023-01-04T18:32:17.678Z,3.38
2023-01-04T18:34:44.624Z,3.58
2023-01-04T18:37:11.409Z,3.45
2023-01-04T18:39:38.176Z,3.38
2023-01-04T18:42:04.943Z,3.53
2023-01-04T18:44:34.097Z,3.55
2023-01-04T18:47:04.775Z,3.03
2023-01-04T18:49:31.751Z,4.05
2023-01-04T18:51:58.496Z,3.63
2023-01-04T18:54:25.261Z,3.35
2023-01-04T18:56:58.621Z,2.90
2023-01-04T18:59:30.588Z,4.13
2023-01-04T19:02:01.953Z,3.63
2023-01-04T19:04:31.577Z,4.03
2023-01-04T19:06:58.649Z,4.22
2023-01-04T19:09:25.414Z,3.30
2023-01-04T19:11:52.195Z,3.35
2023-01-04T19:14:18.939Z,4.43
2023-01-04T19:16:45.856Z,4.32
2023-01-04T19:19:12.741Z,3.78
2023-01-04T19:21:39.500Z,4.00
2023-01-04T19:24:06.429Z,4.30
2023-01-04T19:26:33.331Z,4.28
2023-01-04T19:29:00.361Z,3.75
2023-01-04T19:31:27.318Z,3.95
2023-01-04T19:33:54.041Z,4.30
2023-01-04T19:36:21.183Z,4.28
2023-01-04T19:38:47.919Z,4.22
2023-01-04T19:41:26.501Z,4.30
2023-01-04T19:43:55.946Z,5.35
2023-01-04T19:46:22.698Z,4.50
2023-01-04T19:48:49.432Z,4.20
2023-01-04T19:51:17.163Z,4.90
2023-01-04T19:53:45.195Z,4.03
2023-01-04T19:56:13.846Z,4.72
2023-01-04T19:58:40.986Z,3.72
2023-01-04T20:01:15.713Z,3.95
2023-01-04T20:03:43.020Z,4.13
2023-01-04T20:06:10.416Z,4.45
2023-01-04T20:08:38.015Z,3.88
2023-01-04T20:11:05.316Z,4.38
2023-01-04T20:13:33.486Z,4.00
2023-01-04T20:16:01.199Z,4.80
2023-01-04T20:18:27.991Z,5.07
2023-01-04T20:20:54.706Z,3.53
2023-01-04T20:23:22.316Z,4.80
2023-01-04T20:25:52.519Z,5.07
2023-01-04T20:28:22.374Z,3.63
2023-01-04T20:30:49.150Z,4.07
2023-01-04T20:33:15.836Z,3.63
2023-01-04T20:35:44.621Z,3.50
2023-01-04T20:38:12.402Z,3.70
2023-01-04T20:40:39.899Z,4.65
2023-01-04T20:43:25.588Z,3.92
2023-01-04T20:45:52.534Z,4.70
2023-01-04T20:48:19.345Z,3.53
2023-01-04T20:50:46.136Z,4.10
2023-01-04T20:53:13.592Z,4.53
2023-01-04T20:55:43.883Z,3.65
2023-01-04T20:58:15.326Z,4.38
2023-01-04T21:00:43.490Z,3.78
2023-01-04T21:03:11.749Z,3.75
2023-01-04T21:05:41.439Z,4.10
2023-01-04T21:08:08.783Z,3.47
2023-01-04T21:10:39.908Z,3.42
2023-01-04T21:13:06.624Z,3.57
2023-01-04T21:15:33.385Z,4.70
2023-01-04T21:18:00.193Z,3.78
2023-01-04T21:20:26.945Z,3.78
2023-01-04T21:22:53.709Z,3.97
2023-01-04T21:25:20.453Z,4.20
2023-01-04T21:27:47.325Z,4.03
2023-01-04T21:30:14.586Z,3.47
2023-01-04T21:32:41.296Z,4.13
2023-01-04T21:35:08.682Z,3.95
2023-01-04T21:37:35.370Z,4.30
2023-01-04T21:40:02.136Z,3.92
2023-01-04T21:42:30.969Z,3.50
2023-01-04T21:44:57.770Z,4.05
2023-01-04T21:47:24.478Z,4.47
2023-01-04T21:49:51.224Z,3.90
2023-01-04T21:52:17.917Z,4.53
2023-01-04T21:54:44.635Z,3.80
2023-01-04T21:57:11.367Z,4.07
2023-01-04T21:59:38.095Z,4.07
2023-01-04T22:02:05.081Z,4.10
2023-01-04T22:04:32.996Z,4.43
2023-01-04T22:06:59.799Z,3.85
2023-01-04T22:09:26.509Z,4.20
2023-01-04T22:11:53.209Z,3.90
2023-01-04T22:14:20.131Z,3.85
2023-01-04T22:16:46.935Z,4.25
2023-01-04T22:19:14.910Z,3.40
2023-01-04T22:21:42.362Z,4.03
2023-01-04T22:24:13.719Z,3.78
2023-01-04T22:26:42.031Z,3.70
2023-01-04T22:29:10.274Z,4.20
2023-01-04T22:31:37.485Z,3.70
2023-01-04T22:34:04.250Z,3.70
2023-01-04T22:36:30.967Z,3.83
2023-01-04T22:38:58.303Z,3.58
2023-01-04T22:41:28.006Z,3.88
2023-01-04T22:44:01.079Z,3.42
2023-01-04T22:46:29.591Z,3.60
2023-01-04T22:48:56.834Z,3.72
2023-01-04T22:51:27.240Z,3.50
2023-01-04T22:53:58.897Z,3.83
2023-01-04T22:56:27.381Z,3.58
2023-01-04T22:58:56.786Z,4.18
2023-01-04T23:01:31.084Z,4.05
2023-01-04T23:04:00.087Z,3.75
2023-01-04T23:06:28.968Z,3.78
2023-01-04T23:09:04.822Z,3.60
2023-01-04T23:11:33.799Z,4.20
2023-01-04T23:14:04.610Z,3.70
2023-01-04T23:16:33.136Z,4.03
2023-01-04T23:19:05.568Z,3.75
2023-01-04T23:24:01.165Z,3.63
2023-01-04T23:26:30.312Z,3.88
2023-01-04T23:28:57.921Z,3.72
2023-01-04T23:31:30.036Z,3.45
2023-01-04T23:34:00.121Z,3.88
2023-01-04T23:36:36.241Z,4.65
2023-01-04T23:39:07.639Z,4.00
2023-01-04T23:41:47.309Z,3.40
2023-01-04T23:46:57.331Z,3.90
2023-01-04T23:49:25.945Z,3.78
2023-01-04T23:51:53.221Z,3.63
2023-01-04T23:54:20.688Z,3.70
2023-01-04T23:56:47.601Z,3.47
2023-01-04T23:59:14.538Z,3.17
